Main page
METAR-TAF:

METAR-TAF

Airports :

Berlin, Germany

Berlin Tegel Airport

latitude: 52-34N, longitude: 013-19E, elevation: 37 m

Current weather observation

The report was made 28 minutes ago, at 11:20 UTC
Wind 12 kt from the West
Temperature 19°C
Humidity 68%
Pressure 1020 hPa
Visibility 10 km or more
Few clouds at a height of 2500 ft
Scattered clouds at a height of 6000 ft

METAR: EDDT 211120Z 27012KT 9999 FEW025 SCT060 19/13 Q1020 NOSIG

Time: 13:48 (11:48 UTC)

Forecast

The report was made 48 minutes ago, at 11:00 UTC
Forecast valid from 21 at 12 UTC to 22 at 12 UTC
Wind 13 kt from the West
Visibility 10 km or more
Scattered clouds at a height of 3000 ft
Probability 30% :
Temporary
from 21 at 12 UTC to 21 at 17 UTC
Wind 15 kt from the West with gusts up to 25 kt
Broken clouds at a height of 1500 ft, Cumulonimbus.
rain showers
Becoming
from 21 at 16 UTC to 21 at 19 UTC
Wind 8 kt from the West

TAF: EDDT 211100Z 2112/2212 27013KT 9999 SCT030 PROB30 TEMPO 2112/2117 27015G25KT SHRA BKN015CB BECMG 2116/2119 28008KT

Weather observations and forecasts of more than 4000 airports (METAR and TAF reports).

The available stations are represented by yellow and red dots on the map.

Hover mouse over dot to see the name of the station.

Then click to see weather observations and forecasts.

To change the map : click on the green buttons with a black cross to zoom in, on the green button with a dash to zoom out, or on the green arrows for adjacent maps.


METAR-TAF: